Archival Weather

Randolph Afb

Universal City, Texas (KRND)

Report from: Monday, September 26, 2022 9:55 PM CDT
Current time: Saturday, February 4, 2023 9:56 PM CST

Current weather
Weather history
Weather forecast

Temperature26.3°C (79.3°F)
Dew point5.3°C (41.5°F)
Winds 8 kts (4.1 m/s, 9.2 mph) North-Northeast (30°)
Visibility10 mi. (16.1 km)
Clouds Sky clear
Altimeter30.04 in.Hg (1017 mB)
Relative humidity26 %
Density altitude1,303 ft. (397 m)
Sea-level pressure101.6 kPa (1016 mB, 30.01 in.Hg)
Remarks Fully automated report
Automated weather observing station with precipitation discriminator
Pressure rising
Flight conditions Visual Meteorological Conditions
Raw dataKRND 270255Z AUTO 03008KT 10SM CLR 26/05 A3004 RMK AO2 SLP164 T02630053 52023
An unhandled exception has occurred. See browser dev tools for details. Reload 🗙